»·PEaware :: DAL5824 KPDX-KSEA

DAL5824 :: KPDX-KSEA

FLIGHT INFORMATION

Flight Status: Arrived
Operator:
Delta Air Lines
More flights by this operator :: More flights under this callsign
Pilot: Patricio R. (14780)
Aircraft: AIRBUS A320
(A320)
More flights by this aircraft type
Origin: KPDX Portland Intl
United States
Destination: KSEA Seattle-Tacoma Intl
United States
More flights between these airports :: More routes between these airports
Route: +PTLD1 COUGA KRIEG HAWKZ6
File this flight plan on PilotEdge
Remarks:
Altitude:
(Current/Filed)
20,000ft
Speed:
(Current/Filed)
355kts
Departed: 26-Jul-18 02:48 PM
Arrived: 26-Jul-18 03:21 PM
Distance/Time
Traveled:
112nm/0:33
Distance/Time
To Go:
Arrived

Flight Plot

Page will automatically refresh every two minutes.

Flight plan parsing failed; only flown route is shown


Map Options




Map Legend


Flown Route
Filed Route
Departure Airport
Arrival Airport
Navaid (VOR, NDB)
Fix

Horizontal Profiles

Position Reports

Time Latitude Longitude Heading Altitude Ground
Speed
26-Jul-18 14:27 45.591559 -122.595206 194 38ft 0kts
26-Jul-18 14:28 45.591559 -122.595206 194 38ft 0kts
26-Jul-18 14:29 45.591559 -122.595206 194 38ft 0kts
26-Jul-18 14:30 45.591559 -122.595206 194 38ft 0kts
26-Jul-18 14:31 45.591559 -122.595206 194 38ft 0kts
26-Jul-18 14:32 45.591559 -122.595206 194 38ft 0kts
26-Jul-18 14:33 45.591559 -122.595206 194 38ft 0kts
26-Jul-18 14:34 45.591559 -122.595206 194 38ft 0kts
26-Jul-18 14:35 45.591559 -122.595206 194 38ft 0kts
26-Jul-18 14:36 45.591559 -122.595206 194 38ft 0kts
26-Jul-18 14:37 45.591559 -122.595206 194 38ft 0kts
26-Jul-18 14:38 45.591559 -122.595206 194 38ft 0kts
26-Jul-18 14:39 45.591559 -122.595206 194 38ft 0kts
26-Jul-18 14:40 45.591717 -122.595146 194 38ft 2kts
26-Jul-18 14:41 45.592290 -122.594927 194 38ft 1kts
26-Jul-18 14:42 45.592500 -122.595069 118 38ft 0kts
26-Jul-18 14:43 45.592500 -122.595068 118 38ft 0kts
26-Jul-18 14:44 45.592500 -122.595068 118 38ft 0kts
26-Jul-18 14:45 45.591956 -122.591519 120 38ft 15kts
26-Jul-18 14:46 45.589607 -122.585521 118 38ft 19kts
26-Jul-18 14:47 45.586689 -122.578042 118 38ft 23kts
26-Jul-18 14:48 45.583751 -122.570529 119 38ft 22kts
26-Jul-18 14:49 45.584755 -122.569844 299 38ft 66kts
26-Jul-18 14:50 45.606171 -122.624810 298 1977ft 190kts
26-Jul-18 14:51 45.631139 -122.687515 299 4145ft 253kts
26-Jul-18 14:52 45.691026 -122.768417 4 8030ft 286kts
26-Jul-18 14:53 45.771889 -122.750760 7 11046ft 318kts
26-Jul-18 14:54 45.868642 -122.728757 7 12771ft 375kts
26-Jul-18 14:55 45.955620 -122.708837 7 14970ft 387kts
26-Jul-18 14:56 46.063499 -122.683945 6 17369ft 399kts
26-Jul-18 14:57 46.165199 -122.691668 349 19317ft 405kts
26-Jul-18 14:58 46.276413 -122.713572 349 20183ft 407kts
26-Jul-18 14:59 46.389623 -122.724624 355 20190ft 410kts
26-Jul-18 15:00 46.496874 -122.741234 357 19439ft 372kts
26-Jul-18 15:01 46.596916 -122.739432 357 18589ft 360kts
26-Jul-18 15:02 46.696434 -122.739049 357 17895ft 356kts
26-Jul-18 15:03 46.793799 -122.726241 29 17416ft 353kts
26-Jul-18 15:04 46.868309 -122.640537 35 16024ft 338kts
26-Jul-18 15:05 46.941212 -122.557958 35 14760ft 317kts
26-Jul-18 15:06 47.023830 -122.517395 10 13197ft 324kts
26-Jul-18 15:07 47.108398 -122.495018 5 11740ft 311kts
26-Jul-18 15:08 47.190312 -122.480097 6 10363ft 299kts
26-Jul-18 15:09 47.272439 -122.467463 4 8827ft 293kts
26-Jul-18 15:10 47.350304 -122.455754 2 8030ft 265kts
26-Jul-18 15:11 47.422004 -122.455396 359 6989ft 255kts
26-Jul-18 15:12 47.491970 -122.455391 359 6124ft 241kts
26-Jul-18 15:13 47.557959 -122.455143 359 6037ft 236kts
26-Jul-18 15:14 47.619225 -122.454788 359 5756ft 208kts
26-Jul-18 15:15 47.672338 -122.440610 57 5100ft 192kts
26-Jul-18 15:16 47.664423 -122.373267 150 4089ft 175kts
26-Jul-18 15:17 47.619487 -122.344699 157 3557ft 176kts
26-Jul-18 15:18 47.577914 -122.319602 161 2287ft 148kts
26-Jul-18 15:19 47.539320 -122.310344 181 1463ft 141kts
26-Jul-18 15:20 47.500210 -122.310675 181 1038ft 141kts
26-Jul-18 15:21 47.461203 -122.310958 180 342ft 137kts
26-Jul-18 15:22 47.446806 -122.309481 150 336ft 11kts
26-Jul-18 15:23 47.445240 -122.306282 181 336ft 11kts
26-Jul-18 15:24 47.441538 -122.306367 180 336ft 15kts
26-Jul-18 15:25 47.439895 -122.303766 89 336ft 11kts
26-Jul-18 15:26 47.439894 -122.303781 269 336ft 12kts
26-Jul-18 15:27 47.442464 -122.306343 0 336ft 17kts

Navigation Log

Ident Type
Flight plan parsing failed, navigation log unavailable